Time;durP1;ratioP1;P1;durP2;ratioP2;P2;SDS_P1;SDS_P2;PMS_P1;PMS_P2;Temp;Humidity;BMP_temperature;BMP_pressure;BME280_temperature;BME280_humidity;BME280_pressure;Samples;Min_cycle;Max_cycle;Signal;HPM_P1;HPM_P2
2022/12/10 00:01:52;;;;;;;9.40;3.15;;;;;;;;;;5031180;28;20051;-61
2022/12/10 00:04:22;;;;;;;4.00;2.30;;;;;;;;;;5031339;28;20045;-61
2022/12/10 00:06:52;;;;;;;6.13;2.58;;;;;;;;;;5030835;28;20045;-61
2022/12/10 00:09:21;;;;;;;8.98;2.30;;;;;;;;;;4996036;28;20056;-61
2022/12/10 00:11:51;;;;;;;6.07;3.70;;;;;;;;;;5031138;28;20060;-61
2022/12/10 00:14:20;;;;;;;5.90;2.53;;;;;;;;;;5031110;28;20042;-61
2022/12/10 00:16:50;;;;;;;4.28;1.70;;;;;;;;;;5031097;28;20392;-61
2022/12/10 00:19:19;;;;;;;4.38;2.00;;;;;;;;;;5045210;28;20445;-61
2022/12/10 00:21:49;;;;;;;4.32;1.92;;;;;;;;;;5027656;28;20065;-62
2022/12/10 00:24:18;;;;;;;8.52;3.03;;;;;;;;;;5028437;28;20100;-61
2022/12/10 00:26:48;;;;;;;5.82;1.95;;;;;;;;;;5011717;28;20045;-61
2022/12/10 00:29:18;;;;;;;6.18;2.25;;;;;;;;;;5027883;28;20061;-62
2022/12/10 00:31:47;;;;;;;7.40;2.38;;;;;;;;;;4979371;28;20057;-61
2022/12/10 00:34:17;;;;;;;4.55;2.05;;;;;;;;;;5007803;28;20060;-63
2022/12/10 00:36:48;;;;;;;7.63;2.50;;;;;;;;;;5008218;28;20057;-61
2022/12/10 00:39:21;;;;;;;8.32;2.58;;;;;;;;;;5008337;28;20065;-61
2022/12/10 00:41:51;;;;;;;5.07;2.60;;;;;;;;;;5008068;28;20050;-62
2022/12/10 00:44:20;;;;;;;5.90;2.22;;;;;;;;;;4991690;28;20050;-61
2022/12/10 00:46:50;;;;;;;6.13;2.15;;;;;;;;;;4968779;28;20050;-61
2022/12/10 00:49:22;;;;;;;5.32;1.65;;;;;;;;;;4969199;28;20494;-61
2022/12/10 00:51:53;;;;;;;3.58;2.13;;;;;;;;;;4891219;28;20538;-61
2022/12/10 00:54:22;;;;;;;6.65;1.95;;;;;;;;;;4921301;28;20055;-61
2022/12/10 00:56:52;;;;;;;6.22;2.65;;;;;;;;;;4968936;28;20084;-61
2022/12/10 00:59:21;;;;;;;8.65;2.55;;;;;;;;;;4969006;28;20058;-61
2022/12/10 01:01:52;;;;;;;7.22;2.70;;;;;;;;;;4984716;28;20059;-61
2022/12/10 01:04:22;;;;;;;4.50;2.83;;;;;;;;;;4937008;28;20525;-61
2022/12/10 01:06:53;;;;;;;6.03;3.00;;;;;;;;;;4969063;28;20058;-62
2022/12/10 01:09:27;;;;;;;3.85;2.38;;;;;;;;;;4936785;28;20066;-61
2022/12/10 01:12:01;;;;;;;6.55;1.73;;;;;;;;;;4959014;28;20721;-63
2022/12/10 01:14:33;;;;;;;2.45;2.13;;;;;;;;;;4949705;29;20054;-61
2022/12/10 01:17:05;;;;;;;3.80;2.00;;;;;;;;;;4949659;28;20047;-61
2022/12/10 01:19:35;;;;;;;6.03;1.98;;;;;;;;;;4949708;29;20057;-61
2022/12/10 01:22:06;;;;;;;5.93;1.70;;;;;;;;;;4949825;29;20605;-62
2022/12/10 01:24:37;;;;;;;2.40;1.60;;;;;;;;;;4936741;28;20490;-61
2022/12/10 01:27:07;;;;;;;3.85;1.75;;;;;;;;;;4971769;28;20051;-61
2022/12/10 01:29:36;;;;;;;3.03;1.38;;;;;;;;;;4939704;28;20058;-62
2022/12/10 01:32:08;;;;;;;4.95;1.60;;;;;;;;;;4949343;29;20058;-62
2022/12/10 01:34:39;;;;;;;5.18;1.23;;;;;;;;;;4949109;29;20427;-61
2022/12/10 01:37:09;;;;;;;2.63;1.50;;;;;;;;;;4902129;29;20059;-61
2022/12/10 01:39:39;;;;;;;4.60;1.45;;;;;;;;;;4933805;29;20055;-62
2022/12/10 01:42:13;;;;;;;7.55;1.92;;;;;;;;;;4915543;29;20452;-62
2022/12/10 01:44:49;;;;;;;2.63;1.60;;;;;;;;;;4876029;29;20063;-62
2022/12/10 01:47:21;;;;;;;3.63;1.48;;;;;;;;;;4933253;29;20563;-62
2022/12/10 01:49:51;;;;;;;7.80;2.05;;;;;;;;;;4933900;29;20562;-61
2022/12/10 01:52:21;;;;;;;4.50;1.55;;;;;;;;;;4933409;29;20164;-63
2022/12/10 01:54:51;;;;;;;4.22;1.90;;;;;;;;;;4933747;29;20070;-62
2022/12/10 01:57:26;;;;;;;3.92;1.90;;;;;;;;;;4894651;29;20052;-61
2022/12/10 02:00:02;;;;;;;3.53;1.70;;;;;;;;;;4876969;29;20601;-60
2022/12/10 02:02:43;;;;;;;;;;;;;;;;;;4881672;29;20056;-61
2022/12/10 02:05:36;;;;;;;5.13;1.88;;;;;;;;;;4895887;29;19923;-61
2022/12/10 02:08:21;;;;;;;6.30;1.88;;;;;;;;;;4927390;29;20055;-61
2022/12/10 02:11:23;;;;;;;5.47;1.70;;;;;;;;;;4901960;29;20059;-61
2022/12/10 02:13:57;;;;;;;5.85;1.90;;;;;;;;;;4906712;29;20053;-61
2022/12/10 02:16:47;;;;;;;5.40;1.77;;;;;;;;;;4876281;29;20064;-61
2022/12/10 02:19:35;;;;;;;6.20;2.00;;;;;;;;;;4889606;29;20052;-62
2022/12/10 02:22:08;;;;;;;4.10;1.65;;;;;;;;;;4876608;29;20068;-61
2022/12/10 02:24:41;;;;;;;6.20;1.45;;;;;;;;;;4881739;29;20077;-61
2022/12/10 02:27:28;;;;;;;3.00;1.65;;;;;;;;;;4894861;29;20048;-61
2022/12/10 02:30:00;;;;;;;6.55;1.92;;;;;;;;;;4910592;29;20537;-61
2022/12/10 02:32:37;;;;;;;5.50;1.83;;;;;;;;;;4913689;29;20048;-61
2022/12/10 02:35:16;;;;;;;8.57;1.88;;;;;;;;;;4894411;29;20579;-62
2022/12/10 02:37:55;;;;;;;8.45;2.05;;;;;;;;;;4896053;29;20499;-63
2022/12/10 02:40:29;;;;;;;;;;;;;;;;;;4902177;29;20048;-61
2022/12/10 02:43:01;;;;;;;7.30;2.67;;;;;;;;;;4932398;29;19926;-62
2022/12/10 02:45:33;;;;;;;6.45;2.72;;;;;;;;;;4932164;29;20066;-62
2022/12/10 02:48:05;;;;;;;9.98;3.00;;;;;;;;;;4894485;29;20059;-61
2022/12/10 02:50:42;;;;;;;6.75;2.80;;;;;;;;;;4867704;29;20069;-62
2022/12/10 02:53:14;;;;;;;5.75;1.88;;;;;;;;;;4910879;29;20541;-62
2022/12/10 02:56:03;;;;;;;4.25;1.90;;;;;;;;;;4878335;29;20410;-62
2022/12/10 02:58:57;;;;;;;9.63;2.50;;;;;;;;;;4913041;29;20063;-62
2022/12/10 03:01:31;;;;;;;4.90;2.10;;;;;;;;;;4891298;29;20060;-61
2022/12/10 03:04:12;;;;;;;6.55;2.78;;;;;;;;;;4878485;29;20093;-62
2022/12/10 03:06:50;;;;;;;4.10;2.05;;;;;;;;;;4908850;29;20064;-62
2022/12/10 03:09:26;;;;;;;5.22;2.08;;;;;;;;;;4857879;29;20145;-62
2022/12/10 03:12:02;;;;;;;4.55;2.25;;;;;;;;;;4859616;29;20056;-61
2022/12/10 03:14:34;;;;;;;7.25;2.90;;;;;;;;;;4873568;29;20086;-61
2022/12/10 03:17:05;;;;;;;3.63;1.70;;;;;;;;;;4827572;29;20057;-62
2022/12/10 03:19:43;;;;;;;6.57;2.10;;;;;;;;;;4883267;29;20086;-61
2022/12/10 03:22:16;;;;;;;4.55;1.90;;;;;;;;;;4878426;29;20533;-62
2022/12/10 03:24:48;;;;;;;3.95;1.92;;;;;;;;;;4878357;29;20684;-61
2022/12/10 03:27:21;;;;;;;3.25;1.58;;;;;;;;;;4893790;29;20053;-62
2022/12/10 03:29:53;;;;;;;4.70;1.67;;;;;;;;;;4864236;29;20432;-62
2022/12/10 03:32:24;;;;;;;;;;;;;;;;;;4935699;28;20513;-62
2022/12/10 03:34:56;;;;;;;6.57;2.10;;;;;;;;;;4970205;28;19930;-62
2022/12/10 03:37:28;;;;;;;3.70;1.58;;;;;;;;;;4989276;28;20058;-62
2022/12/10 03:39:59;;;;;;;3.60;1.92;;;;;;;;;;4989620;28;20057;-61
2022/12/10 03:42:28;;;;;;;5.30;1.73;;;;;;;;;;5021959;28;20065;-62
2022/12/10 03:45:00;;;;;;;7.35;2.05;;;;;;;;;;5012715;28;20084;-62
2022/12/10 03:47:30;;;;;;;6.85;1.90;;;;;;;;;;5062169;28;20737;-62
2022/12/10 03:49:59;;;;;;;5.00;1.52;;;;;;;;;;5012815;28;20592;-61
2022/12/10 03:52:29;;;;;;;8.73;1.60;;;;;;;;;;5028977;28;20413;-61
2022/12/10 03:54:58;;;;;;;8.77;1.92;;;;;;;;;;5045254;28;20065;-62
2022/12/10 03:57:28;;;;;;;4.07;1.77;;;;;;;;;;5031537;28;20038;-62
2022/12/10 03:59:58;;;;;;;3.35;1.83;;;;;;;;;;5031121;28;20056;-62
2022/12/10 04:02:28;;;;;;;4.20;1.85;;;;;;;;;;5028757;28;20061;-62
2022/12/10 04:04:57;;;;;;;6.40;2.30;;;;;;;;;;5031213;28;20053;-62
2022/12/10 04:07:27;;;;;;;4.82;1.60;;;;;;;;;;5030984;28;20041;-62
2022/12/10 04:09:56;;;;;;;12.88;1.95;;;;;;;;;;5031310;28;20041;-61
2022/12/10 04:12:26;;;;;;;4.80;2.10;;;;;;;;;;5030985;28;20490;-62
2022/12/10 04:17:44;;;;;;;7.05;1.85;;;;;;;;;;5030914;28;20048;-62
2022/12/10 04:28:40;;;;;;;4.75;2.03;;;;;;;;;;5030877;28;20044;-62
2022/12/10 04:31:09;;;;;;;4.00;1.30;;;;;;;;;;4979157;28;20413;-62
2022/12/10 04:33:39;;;;;;;7.32;1.80;;;;;;;;;;5030442;28;20060;-62
2022/12/10 04:36:09;;;;;;;6.30;2.10;;;;;;;;;;5044988;28;20533;-62
2022/12/10 04:38:39;;;;;;;6.68;1.50;;;;;;;;;;5030567;28;20049;-62
2022/12/10 04:41:15;;;;;;;3.35;1.60;;;;;;;;;;5030714;28;20053;-62
2022/12/10 04:43:45;;;;;;;3.20;2.22;;;;;;;;;;5014719;28;20051;-62
2022/12/10 04:46:16;;;;;;;3.05;1.60;;;;;;;;;;4997948;28;20059;-62
2022/12/10 04:48:45;;;;;;;3.58;1.67;;;;;;;;;;5048187;28;20053;-62
2022/12/10 04:51:15;;;;;;;5.97;1.50;;;;;;;;;;5011737;28;20394;-63
2022/12/10 04:53:45;;;;;;;2.58;1.80;;;;;;;;;;4995747;28;20052;-62
2022/12/10 04:56:14;;;;;;;4.63;1.80;;;;;;;;;;5027636;28;20053;-62
2022/12/10 04:58:44;;;;;;;5.30;1.85;;;;;;;;;;5028081;28;20061;-62
2022/12/10 05:01:14;;;;;;;4.68;1.90;;;;;;;;;;5027895;28;20057;-61
2022/12/10 05:03:44;;;;;;;7.40;2.13;;;;;;;;;;5028128;28;20061;-62
2022/12/10 05:06:16;;;;;;;4.03;1.83;;;;;;;;;;5044080;28;20540;-62
2022/12/10 05:08:47;;;;;;;5.38;2.00;;;;;;;;;;5026858;28;20045;-62
2022/12/10 05:11:20;;;;;;;6.35;2.03;;;;;;;;;;5027725;28;20512;-62
2022/12/10 05:13:50;;;;;;;4.35;1.80;;;;;;;;;;5028430;28;20493;-62
2022/12/10 05:16:23;;;;;;;3.55;1.70;;;;;;;;;;5028252;28;20053;-62
2022/12/10 05:18:54;;;;;;;5.15;1.88;;;;;;;;;;5031589;28;20058;-62
2022/12/10 05:24:18;;;;;;;5.78;2.10;;;;;;;;;;4976048;28;20059;-62
2022/12/10 05:26:50;;;;;;;4.57;2.15;;;;;;;;;;4991981;28;20061;-63
2022/12/10 05:29:21;;;;;;;6.53;1.88;;;;;;;;;;4991981;28;20502;-62
2022/12/10 05:31:50;;;;;;;3.05;1.77;;;;;;;;;;4991988;28;20050;-62
2022/12/10 05:34:20;;;;;;;3.05;1.75;;;;;;;;;;4991791;28;20053;-62
2022/12/10 05:36:50;;;;;;;5.50;2.08;;;;;;;;;;4991930;28;20054;-62
2022/12/10 05:39:19;;;;;;;5.25;2.10;;;;;;;;;;4959716;28;20167;-62
2022/12/10 05:41:49;;;;;;;6.68;2.03;;;;;;;;;;4991246;28;20061;-62
2022/12/10 05:44:19;;;;;;;8.82;1.77;;;;;;;;;;4959318;28;20062;-62
2022/12/10 05:46:49;;;;;;;4.32;1.80;;;;;;;;;;4971952;28;20054;-63
2022/12/10 05:49:18;;;;;;;4.15;1.92;;;;;;;;;;4955756;28;20055;-63
2022/12/10 05:51:49;;;;;;;9.50;2.17;;;;;;;;;;4972559;28;20066;-62
2022/12/10 05:54:19;;;;;;;5.18;1.90;;;;;;;;;;4939835;28;20065;-62
2022/12/10 05:56:50;;;;;;;5.10;1.52;;;;;;;;;;4939217;28;20059;-62
2022/12/10 05:59:21;;;;;;;4.05;2.00;;;;;;;;;;4972235;28;20059;-62
2022/12/10 06:01:50;;;;;;;5.07;1.80;;;;;;;;;;4948692;28;20046;-63
2022/12/10 06:04:20;;;;;;;4.78;1.77;;;;;;;;;;4971741;28;20066;-63
2022/12/10 06:06:50;;;;;;;3.90;1.80;;;;;;;;;;4971639;28;20062;-62
2022/12/10 06:09:19;;;;;;;7.55;2.08;;;;;;;;;;4939572;28;20051;-62
2022/12/10 06:11:49;;;;;;;3.55;2.13;;;;;;;;;;4971748;28;20503;-62
2022/12/10 06:14:19;;;;;;;5.95;2.33;;;;;;;;;;4971866;28;20059;-63
2022/12/10 06:16:48;;;;;;;6.13;1.92;;;;;;;;;;4939628;28;20063;-62
2022/12/10 06:19:18;;;;;;;5.30;1.80;;;;;;;;;;4971560;28;20054;-62
2022/12/10 06:21:47;;;;;;;4.90;2.05;;;;;;;;;;4939286;28;20062;-62
2022/12/10 06:24:17;;;;;;;6.60;2.15;;;;;;;;;;4988008;28;20066;-62
2022/12/10 06:26:48;;;;;;;8.23;1.92;;;;;;;;;;4994279;28;20058;-62
2022/12/10 06:29:24;;;;;;;6.07;1.73;;;;;;;;;;4994115;28;20057;-62
2022/12/10 06:31:54;;;;;;;5.60;1.90;;;;;;;;;;5010340;28;20061;-62
2022/12/10 06:34:23;;;;;;;4.00;2.35;;;;;;;;;;4977447;28;20050;-62
2022/12/10 06:36:54;;;;;;;6.93;2.10;;;;;;;;;;4993666;28;20068;-62
2022/12/10 06:39:24;;;;;;;3.17;1.50;;;;;;;;;;4979655;28;20410;-63
2022/12/10 06:41:54;;;;;;;6.72;1.90;;;;;;;;;;5049932;28;20044;-62
2022/12/10 06:44:27;;;;;;;4.00;1.95;;;;;;;;;;5000956;28;20497;-62
2022/12/10 06:46:56;;;;;;;12.35;2.28;;;;;;;;;;4997354;28;20064;-63
2022/12/10 06:49:26;;;;;;;8.35;2.30;;;;;;;;;;5032742;28;20049;-62
2022/12/10 06:51:56;;;;;;;5.20;2.00;;;;;;;;;;5032491;28;20045;-62
2022/12/10 06:54:26;;;;;;;3.70;1.85;;;;;;;;;;5049551;28;20045;-62
2022/12/10 06:56:56;;;;;;;5.05;2.05;;;;;;;;;;5029329;28;20085;-62
2022/12/10 06:59:25;;;;;;;5.57;1.75;;;;;;;;;;4980282;28;20516;-62
2022/12/10 07:01:55;;;;;;;6.18;1.75;;;;;;;;;;5029642;28;20492;-63
2022/12/10 07:04:25;;;;;;;5.40;2.50;;;;;;;;;;5029795;28;20092;-63
2022/12/10 07:06:54;;;;;;;6.13;1.58;;;;;;;;;;5012679;28;20433;-63
2022/12/10 07:09:24;;;;;;;6.25;2.25;;;;;;;;;;5013233;28;20057;-63
2022/12/10 07:11:54;;;;;;;8.45;2.13;;;;;;;;;;5029550;28;20065;-62
2022/12/10 07:14:23;;;;;;;3.70;1.73;;;;;;;;;;5029394;28;20667;-62
2022/12/10 07:16:53;;;;;;;9.07;2.00;;;;;;;;;;5029547;28;20633;-62
2022/12/10 07:19:22;;;;;;;8.43;2.10;;;;;;;;;;5029469;28;20592;-62
2022/12/10 07:21:52;;;;;;;6.07;1.98;;;;;;;;;;4997161;28;20054;-63
2022/12/10 07:24:22;;;;;;;7.82;2.00;;;;;;;;;;4980892;28;20049;-63
2022/12/10 07:26:52;;;;;;;8.75;2.22;;;;;;;;;;4979831;28;20049;-62
2022/12/10 07:29:23;;;;;;;3.05;1.90;;;;;;;;;;4979977;28;20053;-62
2022/12/10 07:31:54;;;;;;;6.45;1.92;;;;;;;;;;4980301;28;20508;-62
2022/12/10 07:34:24;;;;;;;5.15;2.25;;;;;;;;;;5029726;28;20269;-62
2022/12/10 07:36:54;;;;;;;3.47;2.05;;;;;;;;;;5031752;28;20045;-63
2022/12/10 07:39:24;;;;;;;6.43;1.80;;;;;;;;;;5028396;28;20061;-62
2022/12/10 07:41:54;;;;;;;13.35;1.98;;;;;;;;;;5031752;28;20045;-62
2022/12/10 07:44:25;;;;;;;6.95;2.05;;;;;;;;;;5062450;28;20055;-63
2022/12/10 07:46:56;;;;;;;6.32;2.75;;;;;;;;;;5045683;28;20054;-63
2022/12/10 07:49:26;;;;;;;6.65;2.25;;;;;;;;;;4995528;28;20049;-62
2022/12/10 07:51:55;;;;;;;7.40;1.73;;;;;;;;;;4995933;28;20057;-62
2022/12/10 07:54:25;;;;;;;5.72;1.38;;;;;;;;;;5028767;28;20417;-63
2022/12/10 07:56:55;;;;;;;7.00;3.35;;;;;;;;;;5028426;28;20050;-63
2022/12/10 07:59:24;;;;;;;5.57;2.50;;;;;;;;;;4995396;28;20053;-62
2022/12/10 08:01:54;;;;;;;4.65;2.30;;;;;;;;;;5048380;28;20056;-62
2022/12/10 08:04:24;;;;;;;4.30;1.85;;;;;;;;;;5046437;28;20063;-62
2022/12/10 08:06:55;;;;;;;7.82;2.47;;;;;;;;;;5048250;28;20064;-62
2022/12/10 08:09:26;;;;;;;7.32;2.10;;;;;;;;;;5048376;28;20068;-62
2022/12/10 08:11:56;;;;;;;3.90;1.80;;;;;;;;;;5031742;28;20072;-63
2022/12/10 08:14:25;;;;;;;4.47;2.08;;;;;;;;;;4999101;28;20056;-62
2022/12/10 08:16:55;;;;;;;6.22;2.42;;;;;;;;;;5014969;28;20049;-62
2022/12/10 08:19:25;;;;;;;5.63;2.85;;;;;;;;;;5067988;28;20069;-62
2022/12/10 08:21:59;;;;;;;5.40;1.80;;;;;;;;;;5068328;28;20067;-63
2022/12/10 08:24:29;;;;;;;6.95;1.65;;;;;;;;;;5068264;28;20202;-63
2022/12/10 08:27:00;;;;;;;7.78;3.53;;;;;;;;;;5032228;28;20102;-64
2022/12/10 08:29:29;;;;;;;12.82;2.55;;;;;;;;;;4995476;28;20061;-63
2022/12/10 08:31:59;;;;;;;4.15;2.05;;;;;;;;;;5027953;28;20092;-62
2022/12/10 08:34:28;;;;;;;10.02;2.13;;;;;;;;;;5027987;28;20057;-62
2022/12/10 08:36:58;;;;;;;6.35;2.45;;;;;;;;;;5044650;28;20049;-62
2022/12/10 08:39:28;;;;;;;6.25;2.08;;;;;;;;;;5018664;28;20064;-62
2022/12/10 08:41:57;;;;;;;7.25;2.10;;;;;;;;;;4992121;28;20060;-63
2022/12/10 08:44:27;;;;;;;10.85;2.10;;;;;;;;;;5008708;28;20425;-62
2022/12/10 08:46:56;;;;;;;4.70;2.22;;;;;;;;;;4988301;28;20057;-62
2022/12/10 08:49:26;;;;;;;6.07;2.35;;;;;;;;;;4990751;28;20062;-62
2022/12/10 08:51:56;;;;;;;6.88;2.35;;;;;;;;;;5031414;28;20089;-62
2022/12/10 08:54:26;;;;;;;13.68;1.77;;;;;;;;;;5032074;28;20386;-63
2022/12/10 08:56:55;;;;;;;11.05;2.30;;;;;;;;;;5015288;28;20057;-62
2022/12/10 08:59:25;;;;;;;11.80;2.50;;;;;;;;;;5032245;28;20556;-62
2022/12/10 09:01:54;;;;;;;6.47;1.90;;;;;;;;;;4959989;28;20403;-62
2022/12/10 09:04:24;;;;;;;5.10;2.60;;;;;;;;;;5008749;28;20057;-62
2022/12/10 09:06:54;;;;;;;7.45;2.22;;;;;;;;;;4992529;28;20058;-62
2022/12/10 09:09:24;;;;;;;7.88;2.15;;;;;;;;;;5040949;28;20526;-63
2022/12/10 09:11:53;;;;;;;9.45;2.08;;;;;;;;;;4944105;28;20065;-62
2022/12/10 09:14:23;;;;;;;4.07;1.85;;;;;;;;;;4992362;28;20081;-62
2022/12/10 09:16:53;;;;;;;7.30;2.10;;;;;;;;;;5007889;28;20521;-62
2022/12/10 09:19:22;;;;;;;5.25;2.10;;;;;;;;;;4992179;28;20057;-62
2022/12/10 09:21:52;;;;;;;10.05;2.63;;;;;;;;;;4992164;28;20053;-62
2022/12/10 09:24:21;;;;;;;7.93;2.10;;;;;;;;;;4983869;28;20065;-62
2022/12/10 09:26:51;;;;;;;8.27;2.03;;;;;;;;;;5011854;28;20062;-62
2022/12/10 09:29:20;;;;;;;5.05;1.70;;;;;;;;;;5011784;28;20054;-62
2022/12/10 09:31:52;;;;;;;4.53;2.38;;;;;;;;;;5011606;28;20049;-62
2022/12/10 09:34:22;;;;;;;9.15;2.45;;;;;;;;;;4978732;28;20054;-62
2022/12/10 09:36:51;;;;;;;3.75;2.22;;;;;;;;;;4994922;28;20534;-62
2022/12/10 09:39:21;;;;;;;4.60;2.10;;;;;;;;;;5041677;28;20512;-62
2022/12/10 09:42:09;;;;;;;8.70;1.85;;;;;;;;;;5011499;28;20061;-63
2022/12/10 09:44:57;;;;;;;5.18;1.73;;;;;;;;;;5011468;28;20546;-62
2022/12/10 09:47:44;;;;;;;3.95;2.03;;;;;;;;;;4962493;28;20061;-63
2022/12/10 09:50:21;;;;;;;5.25;1.85;;;;;;;;;;5011216;28;20459;-62
2022/12/10 09:52:54;;;;;;;8.40;1.90;;;;;;;;;;4978656;28;20046;-62
2022/12/10 09:55:37;;;;;;;5.78;1.95;;;;;;;;;;5011147;28;20049;-62
2022/12/10 09:58:13;;;;;;;3.78;2.13;;;;;;;;;;4962356;28;20058;-63
2022/12/10 10:00:46;;;;;;;10.13;1.70;;;;;;;;;;5011126;28;20405;-63
2022/12/10 10:03:17;;;;;;;8.18;2.15;;;;;;;;;;5010551;28;20426;-62
2022/12/10 10:05:51;;;;;;;7.22;2.88;;;;;;;;;;5011104;28;20085;-62
2022/12/10 10:08:38;;;;;;;10.25;2.90;;;;;;;;;;5010839;28;20418;-62
2022/12/10 10:11:23;;;;;;;5.63;3.30;;;;;;;;;;5010616;28;20065;-62
2022/12/10 10:13:58;;;;;;;9.77;3.25;;;;;;;;;;5025955;28;20056;-62
2022/12/10 10:16:47;;;;;;;5.28;3.28;;;;;;;;;;5064353;28;20045;-62
2022/12/10 10:19:25;;;;;;;10.73;3.90;;;;;;;;;;5032858;28;20498;-62
2022/12/10 10:21:54;;;;;;;6.68;3.58;;;;;;;;;;5033052;28;20052;-62
2022/12/10 10:24:35;;;;;;;9.35;2.80;;;;;;;;;;5033234;28;20052;-63
2022/12/10 10:27:28;;;;;;;5.80;2.60;;;;;;;;;;5033162;28;20046;-62
2022/12/10 10:30:01;;;;;;;5.00;2.80;;;;;;;;;;5014634;28;20060;-62
2022/12/10 10:32:37;;;;;;;7.97;3.22;;;;;;;;;;5010476;28;20058;-63
2022/12/10 10:35:07;;;;;;;4.07;2.67;;;;;;;;;;4961682;28;20685;-62
2022/12/10 10:37:42;;;;;;;9.57;3.05;;;;;;;;;;5042889;28;20512;-62
2022/12/10 10:40:24;;;;;;;5.13;3.08;;;;;;;;;;5010950;28;20046;-62
2022/12/10 10:42:59;;;;;;;3.45;2.20;;;;;;;;;;5013590;28;20045;-62
2022/12/10 10:45:42;;;;;;;6.80;2.28;;;;;;;;;;5030281;28;20065;-62
2022/12/10 10:48:17;;;;;;;4.28;2.00;;;;;;;;;;4996959;28;20053;-62
2022/12/10 10:50:52;;;;;;;3.95;1.90;;;;;;;;;;5029870;28;20054;-62
2022/12/10 10:53:42;;;;;;;3.95;1.40;;;;;;;;;;5029898;28;20416;-63
2022/12/10 10:56:20;;;;;;;2.08;1.63;;;;;;;;;;5029388;28;20041;-63
2022/12/10 10:59:01;;;;;;;2.65;1.90;;;;;;;;;;5029766;28;20049;-63
2022/12/10 11:01:52;;;;;;;2.70;1.17;;;;;;;;;;5029571;28;20410;-62
2022/12/10 11:04:37;;;;;;;2.58;1.70;;;;;;;;;;5061200;28;20057;-62
2022/12/10 11:07:27;;;;;;;4.55;1.60;;;;;;;;;;5036149;28;20052;-62
2022/12/10 11:09:58;;;;;;;3.20;0.90;;;;;;;;;;5069353;28;20447;-63
2022/12/10 11:12:40;;;;;;;3.70;1.25;;;;;;;;;;5053160;28;20421;-62
2022/12/10 11:15:52;;;;;;;3.42;1.60;;;;;;;;;;5068361;28;20092;-63
2022/12/10 11:18:33;;;;;;;4.72;2.33;;;;;;;;;;4990028;28;20163;-62
2022/12/10 11:21:14;;;;;;;2.28;1.20;;;;;;;;;;4976567;28;20165;-63
2022/12/10 11:23:46;;;;;;;1.90;1.35;;;;;;;;;;4918871;29;20066;-63
2022/12/10 11:26:49;;;;;;;3.90;1.58;;;;;;;;;;4951132;29;20079;-63
2022/12/10 11:29:36;;;;;;;2.55;1.15;;;;;;;;;;4947832;29;20059;-63
2022/12/10 11:32:34;;;;;;;4.25;1.48;;;;;;;;;;4931677;29;20531;-63
2022/12/10 11:35:40;;;;;;;1.80;0.82;;;;;;;;;;4915332;29;20514;-62
2022/12/10 11:38:44;;;;;;;3.08;1.40;;;;;;;;;;4931834;29;20500;-63
2022/12/10 11:41:40;;;;;;;4.85;1.40;;;;;;;;;;4912546;29;20059;-62
2022/12/10 11:44:36;;;;;;;5.63;1.10;;;;;;;;;;4856882;29;20557;-62
2022/12/10 11:47:45;;;;;;;3.83;2.20;;;;;;;;;;4856471;29;20062;-63
2022/12/10 11:50:27;;;;;;;2.20;1.30;;;;;;;;;;4856727;29;20078;-63
2022/12/10 11:53:27;;;;;;;2.70;1.27;;;;;;;;;;4856454;29;20057;-63
2022/12/10 11:55:57;;;;;;;2.85;1.30;;;;;;;;;;4856219;29;20058;-63
2022/12/10 11:58:47;;;;;;;2.50;1.15;;;;;;;;;;4856553;29;21158;-63
2022/12/10 12:01:44;;;;;;;4.55;1.35;;;;;;;;;;4872946;29;20057;-64
2022/12/10 12:04:44;;;;;;;3.60;1.55;;;;;;;;;;4862704;29;20690;-64
2022/12/10 12:07:48;;;;;;;2.08;1.30;;;;;;;;;;4910853;29;20063;-63
2022/12/10 12:10:44;;;;;;;4.57;1.40;;;;;;;;;;4896191;29;20060;-63
2022/12/10 12:13:34;;;;;;;2.55;1.13;;;;;;;;;;4912019;29;20056;-63
2022/12/10 12:16:18;;;;;;;3.22;1.10;;;;;;;;;;4912629;29;20052;-64
2022/12/10 12:19:11;;;;;;;4.00;1.30;;;;;;;;;;4920803;29;20055;-64
2022/12/10 12:21:42;;;;;;;1.30;1.10;;;;;;;;;;4958828;28;20060;-64
2022/12/10 12:24:36;;;;;;;1.85;1.50;;;;;;;;;;4953949;28;20059;-64
2022/12/10 12:27:34;;;;;;;3.47;1.10;;;;;;;;;;4969395;28;20158;-64
2022/12/10 12:30:15;;;;;;;2.60;1.15;;;;;;;;;;4931314;29;20048;-64
2022/12/10 12:32:57;;;;;;;2.08;1.30;;;;;;;;;;4931244;29;20047;-64
2022/12/10 12:35:51;;;;;;;2.05;1.20;;;;;;;;;;4930861;29;20048;-64
2022/12/10 12:38:30;;;;;;;2.22;1.27;;;;;;;;;;4915736;29;20134;-64
2022/12/10 12:41:33;;;;;;;1.85;1.27;;;;;;;;;;4931003;29;20555;-64
2022/12/10 12:44:29;;;;;;;1.60;1.13;;;;;;;;;;4899255;29;20471;-64
2022/12/10 12:47:11;;;;;;;5.07;1.45;;;;;;;;;;4964775;28;20061;-64
2022/12/10 12:49:43;;;;;;;1.48;1.10;;;;;;;;;;4973044;28;20053;-64
2022/12/10 12:52:27;;;;;;;2.28;1.30;;;;;;;;;;5004908;28;20061;-64
2022/12/10 12:55:02;;;;;;;2.15;1.30;;;;;;;;;;4988817;28;20073;-64
2022/12/10 12:57:45;;;;;;;1.50;1.20;;;;;;;;;;4973079;28;20045;-64
2022/12/10 13:00:23;;;;;;;2.85;1.13;;;;;;;;;;5008147;28;20046;-65
2022/12/10 13:03:29;;;;;;;5.18;1.40;;;;;;;;;;4975746;28;20643;-65
2022/12/10 13:06:28;;;;;;;1.75;1.25;;;;;;;;;;5008175;28;20049;-64
2022/12/10 13:09:26;;;;;;;2.13;1.45;;;;;;;;;;4979118;28;20050;-65
2022/12/10 13:12:05;;;;;;;3.03;1.48;;;;;;;;;;4972224;28;20054;-65
2022/12/10 13:15:24;;;;;;;3.92;2.08;;;;;;;;;;4940376;28;20097;-64
2022/12/10 13:18:18;;;;;;;6.18;1.27;;;;;;;;;;4933422;29;20055;-65
2022/12/10 13:21:07;;;;;;;2.45;1.33;;;;;;;;;;4933647;29;20059;-64
2022/12/10 13:24:08;;;;;;;2.67;1.40;;;;;;;;;;4949931;29;20503;-64
2022/12/10 13:27:05;;;;;;;6.47;1.65;;;;;;;;;;4874077;29;20068;-64
2022/12/10 13:29:52;;;;;;;2.20;1.40;;;;;;;;;;4873932;29;20076;-64
2022/12/10 13:32:44;;;;;;;3.80;1.58;;;;;;;;;;4873878;29;20057;-64
2022/12/10 13:35:17;;;;;;;3.25;1.50;;;;;;;;;;4843012;29;20061;-64
2022/12/10 13:37:49;;;;;;;2.33;1.30;;;;;;;;;;4837394;29;20052;-64
2022/12/10 13:46:35;;;;;;;5.28;3.67;;;;;;;;;;4895614;29;20048;-64
2022/12/10 13:49:18;;;;;;;2.08;1.10;;;;;;;;;;4896023;29;20551;-64
2022/12/10 13:52:07;;;;;;;2.85;1.30;;;;;;;;;;4895840;29;20501;-65
2022/12/10 13:55:03;;;;;;;3.17;2.60;;;;;;;;;;4885522;29;20051;-64
2022/12/10 13:58:19;;;;;;;2.05;1.27;;;;;;;;;;4886763;29;20055;-64
2022/12/10 14:01:04;;;;;;;2.65;1.38;;;;;;;;;;4933379;29;20056;-65
2022/12/10 14:03:46;;;;;;;2.28;1.10;;;;;;;;;;4967292;28;20053;-65
2022/12/10 14:06:19;;;;;;;1.42;1.25;;;;;;;;;;5011026;28;20077;-65
2022/12/10 14:09:12;;;;;;;2.10;1.48;;;;;;;;;;4977594;28;20050;-65
2022/12/10 14:11:56;;;;;;;1.73;1.33;;;;;;;;;;4994369;28;20053;-65
2022/12/10 14:14:48;;;;;;;2.08;1.08;;;;;;;;;;5010955;28;20065;-65
2022/12/10 14:17:30;;;;;;;2.83;0.73;;;;;;;;;;5010782;28;20383;-64
2022/12/10 14:20:02;;;;;;;1.67;1.05;;;;;;;;;;4996176;28;20049;-64
2022/12/10 14:22:38;;;;;;;2.72;1.35;;;;;;;;;;5050873;28;20045;-64
2022/12/10 14:25:23;;;;;;;1.25;1.00;;;;;;;;;;5050389;28;20056;-64
2022/12/10 14:27:54;;;;;;;2.10;1.00;;;;;;;;;;5017746;28;20071;-64
2022/12/10 14:30:26;;;;;;;1.70;1.27;;;;;;;;;;5016633;28;21140;-65
2022/12/10 14:32:59;;;;;;;1.20;1.10;;;;;;;;;;5034059;28;20053;-64
2022/12/10 14:35:29;;;;;;;2.05;1.20;;;;;;;;;;5049854;28;20061;-64
2022/12/10 14:38:01;;;;;;;3.17;1.58;;;;;;;;;;5044874;28;20064;-64
2022/12/10 14:40:42;;;;;;;1.88;1.48;;;;;;;;;;5030333;28;20065;-64
2022/12/10 14:43:31;;;;;;;1.67;1.10;;;;;;;;;;5030305;28;20053;-62
2022/12/10 14:46:03;;;;;;;2.10;0.90;;;;;;;;;;5031803;28;20042;-62
2022/12/10 14:48:42;;;;;;;4.18;1.50;;;;;;;;;;5031948;28;20041;-62
2022/12/10 14:51:21;;;;;;;2.50;1.50;;;;;;;;;;5030198;28;20088;-64
2022/12/10 14:53:53;;;;;;;1.30;1.10;;;;;;;;;;5013505;28;20057;-64
2022/12/10 14:56:40;;;;;;;3.70;1.20;;;;;;;;;;5013268;28;20053;-64
2022/12/10 14:59:19;;;;;;;1.80;1.40;;;;;;;;;;5009489;28;20046;-64
2022/12/10 15:01:56;;;;;;;1.70;1.40;;;;;;;;;;5010410;28;20062;-64
2022/12/10 15:04:38;;;;;;;4.60;1.58;;;;;;;;;;5010059;28;20062;-63
2022/12/10 15:07:17;;;;;;;1.85;1.23;;;;;;;;;;5009850;28;20054;-62
2022/12/10 15:09:48;;;;;;;1.63;1.20;;;;;;;;;;5009942;28;20062;-62
2022/12/10 15:12:27;;;;;;;;;;;;;;;;;;5010318;28;20516;-61
2022/12/10 15:15:30;;;;;;;1.40;1.27;;;;;;;;;;4977310;28;19921;-62
2022/12/10 15:18:16;;;;;;;2.38;1.42;;;;;;;;;;4938703;28;20067;-62
2022/12/10 15:20:51;;;;;;;4.05;1.30;;;;;;;;;;4922584;28;20058;-62
2022/12/10 15:23:26;;;;;;;1.85;1.20;;;;;;;;;;4970863;28;20051;-62
2022/12/10 15:26:04;;;;;;;2.17;1.20;;;;;;;;;;4970543;28;20050;-62
2022/12/10 15:28:36;;;;;;;1.95;1.33;;;;;;;;;;4938490;28;20055;-62
2022/12/10 15:31:22;;;;;;;1.90;1.38;;;;;;;;;;5001787;28;20066;-62
2022/12/10 15:34:07;;;;;;;1.65;1.27;;;;;;;;;;5009366;28;20057;-62
2022/12/10 15:36:49;;;;;;;1.88;1.00;;;;;;;;;;4961006;28;20053;-62
2022/12/10 15:39:21;;;;;;;1.73;1.25;;;;;;;;;;5009090;28;20048;-62
2022/12/10 15:42:04;;;;;;;2.17;1.63;;;;;;;;;;5009179;28;20061;-62
2022/12/10 15:44:42;;;;;;;1.63;1.40;;;;;;;;;;4993287;28;20060;-62
2022/12/10 15:47:20;;;;;;;2.25;1.30;;;;;;;;;;4960568;28;20065;-62
2022/12/10 15:49:54;;;;;;;1.15;1.02;;;;;;;;;;5009314;28;20050;-63
2022/12/10 15:52:29;;;;;;;2.30;1.30;;;;;;;;;;4960695;28;20057;-62
2022/12/10 15:54:59;;;;;;;1.85;1.10;;;;;;;;;;5023876;28;20528;-62
2022/12/10 15:57:44;;;;;;;3.45;2.30;;;;;;;;;;5031141;28;20052;-62